createdAt,value
2019-06-20T00:00:35.645Z,0.00
2019-06-20T00:01:35.877Z,0.00
2019-06-20T00:02:36.108Z,0.00
2019-06-20T00:03:36.340Z,0.00
2019-06-20T00:04:36.579Z,0.00
2019-06-20T00:05:36.805Z,0.00
2019-06-20T00:06:37.042Z,0.00
2019-06-20T00:07:37.274Z,0.00
2019-06-20T00:08:37.503Z,0.00
2019-06-20T00:09:37.735Z,0.00
2019-06-20T00:10:37.965Z,0.00
2019-06-20T00:11:38.198Z,0.00
2019-06-20T00:12:38.433Z,0.00
2019-06-20T00:13:38.661Z,0.00
2019-06-20T00:14:38.895Z,0.00
2019-06-20T00:15:39.123Z,0.00
2019-06-20T00:16:39.355Z,0.00
2019-06-20T00:17:39.586Z,0.00
2019-06-20T00:18:39.820Z,0.00
2019-06-20T00:19:40.050Z,0.00
2019-06-20T00:20:40.294Z,0.00
2019-06-20T00:21:40.513Z,0.00
2019-06-20T00:22:40.746Z,0.00
2019-06-20T00:23:40.973Z,0.00
2019-06-20T00:24:41.207Z,0.00
2019-06-20T00:25:41.437Z,0.00
2019-06-20T00:26:41.670Z,0.00
2019-06-20T00:27:41.902Z,0.00
2019-06-20T00:28:42.134Z,0.00
2019-06-20T00:29:42.379Z,0.00
2019-06-20T00:30:42.595Z,0.00
2019-06-20T00:31:42.828Z,0.00
2019-06-20T00:32:43.057Z,0.00
2019-06-20T00:33:43.290Z,0.00
2019-06-20T00:34:43.521Z,0.00
2019-06-20T00:35:43.811Z,0.00
2019-06-20T00:36:43.989Z,0.00
2019-06-20T00:37:44.221Z,0.00
2019-06-20T00:38:44.457Z,0.00
2019-06-20T00:39:44.686Z,0.00
2019-06-20T00:40:44.914Z,0.00
2019-06-20T00:41:45.147Z,0.00
2019-06-20T00:42:45.379Z,0.00
2019-06-20T00:43:45.618Z,0.00
2019-06-20T00:44:45.844Z,0.00
2019-06-20T00:45:46.076Z,0.00
2019-06-20T00:46:46.308Z,0.00
2019-06-20T00:47:46.540Z,0.00
2019-06-20T00:51:53.338Z,0.00
2019-06-20T00:52:53.571Z,0.00
2019-06-20T00:53:53.799Z,0.00
2019-06-20T00:54:54.032Z,0.00
2019-06-20T00:55:54.261Z,0.00
2019-06-20T00:56:54.495Z,0.00
2019-06-20T00:57:54.726Z,0.00
2019-06-20T00:58:54.958Z,0.00
2019-06-20T00:59:55.211Z,0.00
2019-06-20T01:00:55.419Z,0.00
2019-06-20T01:01:55.751Z,0.00
2019-06-20T01:02:55.889Z,0.00
2019-06-20T01:03:56.115Z,0.00
2019-06-20T01:04:56.345Z,0.00
2019-06-20T01:05:56.576Z,0.00
2019-06-20T01:06:56.809Z,0.00
2019-06-20T01:07:57.037Z,0.00
2019-06-20T01:08:57.268Z,0.00
2019-06-20T01:09:57.521Z,0.00
2019-06-20T01:10:57.740Z,0.00
2019-06-20T01:11:57.970Z,0.00
2019-06-20T01:12:58.206Z,0.00
2019-06-20T01:13:58.434Z,0.00
2019-06-20T01:14:58.664Z,0.00
2019-06-20T01:15:58.895Z,0.00
2019-06-20T01:16:59.124Z,0.00
2019-06-20T01:17:59.350Z,0.00
2019-06-20T01:18:59.581Z,0.00
2019-06-20T01:19:59.811Z,0.00
2019-06-20T01:21:00.043Z,0.00
2019-06-20T01:22:00.276Z,0.00
2019-06-20T01:23:00.506Z,0.00
2019-06-20T01:24:00.736Z,0.00
2019-06-20T01:25:00.966Z,0.00
2019-06-20T01:26:01.197Z,0.00
2019-06-20T01:27:01.427Z,0.00
2019-06-20T01:28:01.659Z,0.00
2019-06-20T01:29:01.892Z,0.00
2019-06-20T01:30:02.123Z,0.00
2019-06-20T01:31:02.356Z,0.00
2019-06-20T01:32:02.584Z,0.00
2019-06-20T01:33:02.826Z,0.00
2019-06-20T01:34:03.051Z,0.00
2019-06-20T01:35:03.279Z,0.00
2019-06-20T01:36:03.508Z,0.00
2019-06-20T01:37:03.739Z,0.00
2019-06-20T01:38:03.969Z,0.00
2019-06-20T01:39:04.211Z,0.00
2019-06-20T01:40:04.431Z,0.00
2019-06-20T01:41:06.169Z,0.00
2019-06-20T01:42:04.892Z,0.00
2019-06-20T01:43:05.125Z,0.00
2019-06-20T01:44:05.361Z,0.00
2019-06-20T01:45:05.584Z,0.00
2019-06-20T01:46:05.811Z,0.00
2019-06-20T01:47:06.043Z,0.00
2019-06-20T01:48:06.271Z,0.00
2019-06-20T01:49:06.505Z,0.00
2019-06-20T01:50:06.735Z,0.00
2019-06-20T01:51:06.965Z,0.00
2019-06-20T01:52:07.201Z,0.00
2019-06-20T01:53:07.425Z,0.00
2019-06-20T01:54:07.662Z,0.00
2019-06-20T01:55:07.897Z,0.00
2019-06-20T01:56:08.136Z,0.00
2019-06-20T01:57:08.358Z,0.00
2019-06-20T01:58:08.590Z,0.00
2019-06-20T01:59:08.818Z,0.00
2019-06-20T02:00:09.056Z,0.00
2019-06-20T02:01:09.283Z,0.00
2019-06-20T02:02:09.520Z,0.00
2019-06-20T02:03:09.774Z,0.00
2019-06-20T02:04:09.975Z,0.00
2019-06-20T02:05:10.217Z,0.00
2019-06-20T02:06:10.439Z,0.00
2019-06-20T02:07:10.683Z,0.00
2019-06-20T02:08:10.901Z,0.00
2019-06-20T02:09:11.137Z,0.00
2019-06-20T02:10:11.366Z,0.00
2019-06-20T02:11:11.595Z,0.00
2019-06-20T02:12:11.823Z,0.00
2019-06-20T02:13:12.057Z,0.00
2019-06-20T02:14:12.285Z,0.00
2019-06-20T02:15:12.520Z,0.00
2019-06-20T02:16:12.744Z,0.00
2019-06-20T02:17:12.974Z,0.00
2019-06-20T02:18:13.207Z,0.00
2019-06-20T02:19:13.437Z,0.00
2019-06-20T02:20:13.667Z,0.00
2019-06-20T02:21:13.902Z,0.00
2019-06-20T02:22:14.128Z,0.00
2019-06-20T02:23:14.362Z,0.00
2019-06-20T02:24:14.599Z,0.00
2019-06-20T02:25:14.837Z,0.00
2019-06-20T02:26:15.062Z,0.00
2019-06-20T02:27:15.291Z,0.00
2019-06-20T02:28:15.524Z,0.00
2019-06-20T02:29:15.755Z,0.00
2019-06-20T02:30:15.993Z,0.00
2019-06-20T02:31:16.221Z,0.00
2019-06-20T02:32:16.442Z,0.00
2019-06-20T02:33:16.677Z,0.00
2019-06-20T02:34:16.904Z,0.00
2019-06-20T02:35:17.138Z,0.00
2019-06-20T02:36:17.368Z,0.00
2019-06-20T02:37:17.600Z,0.00
2019-06-20T02:38:17.831Z,0.00
2019-06-20T02:39:18.073Z,0.00
2019-06-20T02:40:18.292Z,0.00
2019-06-20T02:41:18.525Z,0.00
2019-06-20T02:42:18.755Z,0.00
2019-06-20T02:43:18.990Z,0.00
2019-06-20T02:44:29.952Z,0.00
2019-06-20T02:45:19.458Z,0.00
2019-06-20T02:46:19.684Z,0.00
2019-06-20T02:47:19.912Z,0.00
2019-06-20T02:48:20.143Z,4.00
2019-06-20T02:49:20.375Z,4.00
2019-06-20T02:50:20.609Z,4.00
2019-06-20T02:51:20.842Z,0.00
2019-06-20T02:52:21.082Z,4.00
2019-06-20T02:53:21.306Z,4.00
2019-06-20T02:54:21.534Z,8.00
2019-06-20T02:55:21.773Z,4.00
2019-06-20T02:56:21.991Z,8.00
2019-06-20T02:57:22.226Z,8.00
2019-06-20T02:58:22.462Z,8.00
2019-06-20T02:59:22.684Z,8.00
2019-06-20T03:00:22.915Z,12.00
2019-06-20T03:01:23.129Z,12.00
2019-06-20T03:02:23.364Z,12.00
2019-06-20T03:03:23.595Z,16.00
2019-06-20T03:04:23.822Z,16.00
2019-06-20T03:05:24.071Z,16.00
2019-06-20T03:06:24.283Z,24.00
2019-06-20T03:07:24.527Z,24.00
2019-06-20T03:08:24.758Z,28.00
2019-06-20T03:09:24.991Z,32.00
2019-06-20T03:10:25.220Z,32.00
2019-06-20T03:11:25.449Z,36.00
2019-06-20T03:12:25.678Z,36.00
2019-06-20T03:13:25.910Z,40.00
2019-06-20T03:14:26.143Z,44.00
2019-06-20T03:15:26.373Z,44.00
2019-06-20T03:16:26.602Z,48.00
2019-06-20T03:17:26.833Z,48.00
2019-06-20T03:18:27.064Z,48.00
2019-06-20T03:19:27.299Z,48.00
2019-06-20T03:20:27.527Z,52.00
2019-06-20T03:21:27.762Z,52.00
2019-06-20T03:22:27.991Z,60.00
2019-06-20T03:23:28.225Z,68.00
2019-06-20T03:24:28.455Z,76.00
2019-06-20T03:25:28.687Z,88.00
2019-06-20T03:26:28.911Z,100.00
2019-06-20T03:27:29.145Z,112.00
2019-06-20T03:28:29.375Z,124.00
2019-06-20T03:29:29.608Z,132.00
2019-06-20T03:30:29.929Z,144.00
2019-06-20T03:31:30.070Z,144.00
2019-06-20T03:32:30.300Z,152.00
2019-06-20T03:33:30.534Z,156.00
2019-06-20T03:34:30.763Z,160.00
2019-06-20T03:35:30.997Z,172.00
2019-06-20T03:36:31.225Z,180.00
2019-06-20T03:37:31.455Z,188.00
2019-06-20T03:38:31.689Z,200.00
2019-06-20T03:39:31.929Z,212.00
2019-06-20T03:40:32.158Z,232.00
2019-06-20T03:41:32.383Z,256.00
2019-06-20T03:42:32.609Z,280.00
2019-06-20T03:43:32.843Z,312.00
2019-06-20T03:44:33.070Z,352.00
2019-06-20T03:45:33.302Z,404.00
2019-06-20T03:46:33.535Z,452.00
2019-06-20T03:47:33.764Z,480.00
2019-06-20T03:48:33.995Z,508.00
2019-06-20T03:49:34.225Z,544.00
2019-06-20T03:50:34.456Z,616.00
2019-06-20T03:51:34.685Z,712.00
2019-06-20T03:52:34.921Z,820.00
2019-06-20T03:53:35.151Z,932.00
2019-06-20T03:54:35.382Z,1036.00
2019-06-20T03:55:35.621Z,1124.00
2019-06-20T03:56:35.848Z,1224.00
2019-06-20T03:57:36.079Z,1308.00
2019-06-20T03:58:36.310Z,1384.00
2019-06-20T03:59:36.544Z,1456.00
2019-06-20T04:00:36.775Z,1512.00
2019-06-20T04:01:37.005Z,1576.00
2019-06-20T04:02:37.239Z,1668.00
2019-06-20T04:03:37.485Z,1768.00
2019-06-20T04:04:37.706Z,1856.00
2019-06-20T04:05:37.952Z,1908.00
2019-06-20T04:06:38.180Z,1928.00
2019-06-20T04:07:38.396Z,1900.00
2019-06-20T04:08:38.629Z,1840.00
2019-06-20T04:09:38.857Z,1776.00
2019-06-20T04:10:39.093Z,1712.00
2019-06-20T04:11:39.324Z,1656.00
2019-06-20T04:12:39.558Z,1608.00
2019-06-20T04:13:39.792Z,1564.00
2019-06-20T04:14:40.019Z,1516.00
2019-06-20T04:15:40.258Z,1460.00
2019-06-20T04:16:40.479Z,1412.00
2019-06-20T04:17:40.712Z,1368.00
2019-06-20T04:18:40.942Z,1332.00
2019-06-20T04:19:41.177Z,1308.00
2019-06-20T04:20:41.413Z,1296.00
2019-06-20T04:21:41.640Z,1312.00
2019-06-20T04:22:41.869Z,1348.00
2019-06-20T04:23:42.119Z,1420.00
2019-06-20T04:24:42.368Z,1536.00
2019-06-20T04:25:42.598Z,1680.00
2019-06-20T04:26:42.833Z,1828.00
2019-06-20T04:27:43.061Z,1980.00
2019-06-20T04:28:43.297Z,2144.00
2019-06-20T04:29:43.525Z,2332.00
2019-06-20T04:30:43.758Z,2540.00
2019-06-20T04:31:43.989Z,2668.00
2019-06-20T04:32:44.226Z,2832.00
2019-06-20T04:33:44.458Z,3104.00
2019-06-20T04:34:44.685Z,3380.00
2019-06-20T04:35:44.915Z,3632.00
2019-06-20T04:36:47.993Z,3888.00
2019-06-20T04:37:45.378Z,4160.00
2019-06-20T04:38:45.617Z,4468.00
2019-06-20T04:39:45.843Z,4736.00
2019-06-20T04:40:46.073Z,4976.00
2019-06-20T04:41:46.305Z,5156.00
2019-06-20T04:42:46.539Z,5344.00
2019-06-20T04:43:46.770Z,5640.00
2019-06-20T04:44:47.001Z,6008.00
2019-06-20T04:45:47.239Z,6380.00
2019-06-20T04:46:47.459Z,7828.00
2019-06-20T04:47:47.704Z,8256.00
2019-06-20T04:48:47.930Z,10440.00
2019-06-20T04:49:48.163Z,13104.00
2019-06-20T04:50:48.400Z,20000.00
2019-06-20T04:51:48.631Z,28384.00
2019-06-20T04:52:48.863Z,25760.00
2019-06-20T04:53:49.096Z,25248.00
2019-06-20T04:54:49.337Z,20928.00
2019-06-20T04:55:49.558Z,19680.00
2019-06-20T04:56:49.793Z,16320.00
2019-06-20T04:57:50.052Z,16896.00
2019-06-20T04:58:50.257Z,19488.00
2019-06-20T04:59:50.491Z,23200.00
2019-06-20T05:00:50.725Z,26272.00
2019-06-20T05:01:50.958Z,25184.00
2019-06-20T05:02:51.190Z,19616.00
2019-06-20T05:03:51.425Z,20960.00
2019-06-20T05:04:51.658Z,13724.00
2019-06-20T05:05:51.892Z,13872.00
2019-06-20T05:06:52.131Z,9980.00
2019-06-20T05:07:52.360Z,9184.00
2019-06-20T05:08:52.594Z,11360.00
2019-06-20T05:09:52.826Z,11244.00
2019-06-20T05:10:53.059Z,22912.00
2019-06-20T05:11:53.298Z,27104.00
2019-06-20T05:12:55.937Z,14864.00
2019-06-20T05:13:53.762Z,14776.00
2019-06-20T05:14:53.998Z,10168.00
2019-06-20T05:15:54.229Z,23552.00
2019-06-20T05:16:54.474Z,25984.00
2019-06-20T05:17:54.698Z,13336.00
2019-06-20T05:18:54.992Z,15620.00
2019-06-20T05:19:55.167Z,27488.00
2019-06-20T05:20:55.402Z,14868.00
2019-06-20T05:21:55.638Z,11808.00
2019-06-20T05:22:55.876Z,13012.00
2019-06-20T05:23:56.110Z,15196.00
2019-06-20T05:24:56.391Z,13064.00
2019-06-20T05:25:56.578Z,20096.00
2019-06-20T05:26:56.819Z,26176.00
2019-06-20T05:27:57.052Z,32064.00
2019-06-20T05:28:57.301Z,37344.00
2019-06-20T05:29:57.527Z,25856.00
2019-06-20T05:30:57.760Z,27392.00
2019-06-20T05:31:58.013Z,25728.00
2019-06-20T05:32:58.232Z,29184.00
2019-06-20T05:33:58.466Z,33312.00
2019-06-20T05:35:02.647Z,39680.00
2019-06-20T05:35:58.941Z,34240.00
2019-06-20T05:36:59.180Z,19136.00
2019-06-20T05:37:59.467Z,31584.00
2019-06-20T05:38:59.699Z,34272.00
2019-06-20T05:39:59.931Z,34912.00
2019-06-20T05:41:00.170Z,34560.00
2019-06-20T05:42:00.437Z,34048.00
2019-06-20T05:43:00.695Z,34272.00
2019-06-20T05:44:00.930Z,34400.00
2019-06-20T05:45:01.171Z,34944.00
2019-06-20T05:46:09.503Z,36928.00
2019-06-20T05:47:11.896Z,13704.00
2019-06-20T05:48:01.889Z,16896.00
2019-06-20T05:49:02.246Z,32096.00
2019-06-20T05:50:02.356Z,31200.00
2019-06-20T05:51:02.621Z,37600.00
2019-06-20T05:52:02.838Z,36992.00
2019-06-20T05:53:03.149Z,34720.00
2019-06-20T05:54:03.293Z,32832.00
2019-06-20T05:55:03.542Z,31488.00
2019-06-20T05:56:03.766Z,13976.00
2019-06-20T05:57:04.775Z,28192.00
2019-06-20T05:58:04.242Z,30048.00
2019-06-20T05:59:04.476Z,30944.00
2019-06-20T06:00:04.716Z,31712.00
2019-06-20T06:01:04.957Z,26048.00
2019-06-20T06:02:05.195Z,33792.00
2019-06-20T06:03:07.081Z,33952.00
2019-06-20T06:04:05.661Z,23456.00
2019-06-20T06:05:05.900Z,15840.00
2019-06-20T06:06:06.142Z,28416.00
2019-06-20T06:07:06.370Z,13728.00
2019-06-20T06:08:06.613Z,13176.00
2019-06-20T06:09:06.867Z,19552.00
2019-06-20T06:10:07.091Z,12724.00
2019-06-20T06:11:07.319Z,21344.00
2019-06-20T06:12:07.557Z,23456.00
2019-06-20T06:13:07.792Z,28896.00
2019-06-20T06:14:08.038Z,27616.00
2019-06-20T06:15:08.264Z,16704.00
2019-06-20T06:16:25.134Z,17952.00
2019-06-20T06:17:08.738Z,27968.00
2019-06-20T06:18:08.977Z,26240.00
2019-06-20T06:19:09.210Z,10992.00
2019-06-20T06:20:09.447Z,14676.00
2019-06-20T06:21:09.684Z,11852.00
2019-06-20T06:22:09.920Z,28832.00
2019-06-20T06:23:10.169Z,29120.00
2019-06-20T06:24:10.401Z,29344.00
2019-06-20T06:25:10.643Z,29344.00
2019-06-20T06:26:10.867Z,29824.00
2019-06-20T06:27:11.168Z,31680.00
2019-06-20T06:28:12.512Z,28160.00
2019-06-20T06:29:11.524Z,13956.00
2019-06-20T06:30:11.759Z,11600.00
2019-06-20T06:31:11.994Z,10400.00
2019-06-20T06:32:12.231Z,9280.00
2019-06-20T06:33:12.470Z,9796.00
2019-06-20T06:34:12.708Z,10560.00
2019-06-20T06:35:12.945Z,15524.00
2019-06-20T06:36:13.182Z,24320.00
2019-06-20T06:37:13.427Z,14592.00
2019-06-20T06:38:13.666Z,23968.00
2019-06-20T06:39:13.911Z,18624.00
2019-06-20T06:40:14.145Z,17664.00
2019-06-20T06:41:14.482Z,12012.00
2019-06-20T06:42:14.759Z,19936.00
2019-06-20T06:43:14.819Z,21664.00
2019-06-20T06:44:15.058Z,23008.00
2019-06-20T06:45:15.298Z,19520.00
2019-06-20T06:46:15.534Z,12384.00
2019-06-20T06:47:15.767Z,10596.00
2019-06-20T06:48:16.012Z,11420.00
2019-06-20T06:49:16.251Z,18272.00
2019-06-20T06:50:16.538Z,14736.00
2019-06-20T06:51:16.713Z,21728.00
2019-06-20T06:52:16.948Z,22432.00
2019-06-20T06:53:17.222Z,21824.00
2019-06-20T06:54:17.423Z,21920.00
2019-06-20T06:55:17.661Z,22240.00
2019-06-20T06:56:17.897Z,21696.00
2019-06-20T06:57:18.141Z,21216.00
2019-06-20T06:58:18.376Z,20576.00
2019-06-20T06:59:18.613Z,19168.00
2019-06-20T07:00:18.842Z,15028.00
2019-06-20T07:01:19.213Z,19328.00
2019-06-20T07:02:19.505Z,20576.00
2019-06-20T07:03:19.563Z,21248.00
2019-06-20T07:04:19.800Z,20448.00
2019-06-20T07:05:20.034Z,13848.00
2019-06-20T07:06:20.273Z,18080.00
2019-06-20T07:07:20.507Z,17824.00
2019-06-20T07:08:20.745Z,17824.00
2019-06-20T07:09:20.982Z,17760.00
2019-06-20T07:10:21.218Z,17760.00
2019-06-20T07:11:21.457Z,17184.00
2019-06-20T07:12:21.693Z,15700.00
2019-06-20T07:13:21.930Z,15540.00
2019-06-20T07:14:22.173Z,15352.00
2019-06-20T07:15:22.408Z,15852.00
2019-06-20T07:16:22.657Z,15632.00
2019-06-20T07:17:22.882Z,15184.00
2019-06-20T07:18:23.121Z,15416.00
2019-06-20T07:19:23.357Z,16288.00
2019-06-20T07:20:23.592Z,16608.00
2019-06-20T07:21:23.834Z,16768.00
2019-06-20T07:22:24.066Z,17248.00
2019-06-20T07:23:24.307Z,14324.00
2019-06-20T07:24:24.543Z,18080.00
2019-06-20T07:25:24.774Z,17440.00
2019-06-20T07:26:25.009Z,17696.00
2019-06-20T07:27:25.244Z,18528.00
2019-06-20T07:28:25.476Z,18272.00
2019-06-20T07:29:25.718Z,16736.00
2019-06-20T07:30:25.954Z,13832.00
2019-06-20T07:31:26.191Z,14056.00
2019-06-20T07:32:26.433Z,13840.00
2019-06-20T07:33:26.663Z,10356.00
2019-06-20T07:34:26.900Z,9068.00
2019-06-20T07:35:27.134Z,8104.00
2019-06-20T07:36:27.373Z,7116.00
2019-06-20T07:37:27.606Z,6516.00
2019-06-20T07:38:27.843Z,6544.00
2019-06-20T07:39:28.078Z,6532.00
2019-06-20T07:40:28.319Z,9252.00
2019-06-20T07:41:28.552Z,6688.00
2019-06-20T07:42:28.804Z,6312.00
2019-06-20T07:43:29.021Z,5948.00
2019-06-20T07:44:29.254Z,5496.00
2019-06-20T07:45:29.513Z,5420.00
2019-06-20T07:46:29.724Z,5760.00
2019-06-20T07:47:29.956Z,5928.00
2019-06-20T07:48:30.186Z,5300.00
2019-06-20T07:49:30.421Z,4668.00
2019-06-20T07:50:30.660Z,4376.00
2019-06-20T07:51:30.897Z,4060.00
2019-06-20T07:52:31.123Z,3720.00
2019-06-20T07:53:31.361Z,3324.00
2019-06-20T07:54:31.617Z,3084.00
2019-06-20T07:55:31.841Z,3028.00
2019-06-20T07:56:32.076Z,3416.00
2019-06-20T07:57:32.311Z,3964.00
2019-06-20T07:58:32.547Z,4176.00
2019-06-20T07:59:32.781Z,4380.00
2019-06-20T08:00:33.036Z,4416.00
2019-06-20T08:01:33.250Z,4128.00
2019-06-20T08:02:33.487Z,3772.00
2019-06-20T08:03:33.779Z,3556.00
2019-06-20T08:04:33.955Z,3492.00
2019-06-20T08:05:34.202Z,3488.00
2019-06-20T08:06:34.434Z,3596.00
2019-06-20T08:07:34.656Z,3904.00
2019-06-20T08:08:34.888Z,4548.00
2019-06-20T08:09:44.686Z,5116.00
2019-06-20T08:10:35.353Z,5380.00
2019-06-20T08:11:35.598Z,5740.00
2019-06-20T08:12:35.805Z,6028.00
2019-06-20T08:13:36.054Z,6208.00
2019-06-20T08:14:36.302Z,6440.00
2019-06-20T08:15:36.506Z,6336.00
2019-06-20T08:16:36.740Z,6472.00
2019-06-20T08:17:36.976Z,6656.00
2019-06-20T08:18:37.209Z,8192.00
2019-06-20T08:19:37.440Z,10148.00
2019-06-20T08:20:37.683Z,12372.00
2019-06-20T08:21:37.904Z,13280.00
2019-06-20T08:22:38.140Z,14048.00
2019-06-20T08:23:38.372Z,14144.00
2019-06-20T08:24:38.604Z,14020.00
2019-06-20T08:25:38.840Z,13940.00
2019-06-20T08:26:39.073Z,9308.00
2019-06-20T08:27:39.308Z,8672.00
2019-06-20T08:28:39.574Z,8784.00
2019-06-20T08:29:39.847Z,8980.00
2019-06-20T08:30:39.994Z,9008.00
2019-06-20T08:31:40.226Z,8860.00
2019-06-20T08:32:40.463Z,9148.00
2019-06-20T08:33:40.695Z,9692.00
2019-06-20T08:34:40.938Z,14484.00
2019-06-20T08:35:41.168Z,15120.00
2019-06-20T08:36:41.404Z,15904.00
2019-06-20T08:37:41.655Z,16192.00
2019-06-20T08:38:41.873Z,16480.00
2019-06-20T08:39:42.109Z,17216.00
2019-06-20T08:40:42.349Z,17376.00
2019-06-20T08:41:42.576Z,16256.00
2019-06-20T08:42:42.811Z,9888.00
2019-06-20T08:43:43.045Z,9500.00
2019-06-20T08:44:43.283Z,8744.00
2019-06-20T08:45:43.514Z,8496.00
2019-06-20T08:46:43.750Z,8616.00
2019-06-20T08:47:43.983Z,12636.00
2019-06-20T08:48:44.218Z,13288.00
2019-06-20T08:49:44.507Z,13420.00
2019-06-20T08:50:44.685Z,14580.00
2019-06-20T08:51:44.922Z,15552.00
2019-06-20T08:52:45.155Z,16000.00
2019-06-20T08:53:45.389Z,14180.00
2019-06-20T08:54:45.626Z,17504.00
2019-06-20T08:55:45.860Z,18240.00
2019-06-20T08:56:46.095Z,18624.00
2019-06-20T08:57:46.337Z,18656.00
2019-06-20T08:58:46.568Z,18912.00
2019-06-20T08:59:46.804Z,18944.00
2019-06-20T09:00:47.072Z,18272.00
2019-06-20T09:01:47.271Z,19200.00
2019-06-20T09:02:47.526Z,19744.00
2019-06-20T09:03:47.742Z,18592.00
2019-06-20T09:04:47.981Z,16992.00
2019-06-20T09:05:48.211Z,15968.00
2019-06-20T09:06:50.166Z,14260.00
2019-06-20T09:07:48.684Z,15060.00
2019-06-20T09:08:48.920Z,12988.00
2019-06-20T09:09:49.153Z,16736.00
2019-06-20T09:10:49.392Z,17952.00
2019-06-20T09:11:49.655Z,14148.00
2019-06-20T09:12:49.857Z,13072.00
2019-06-20T09:13:50.092Z,12928.00
2019-06-20T09:14:50.329Z,12536.00
2019-06-20T09:15:50.561Z,12996.00
2019-06-20T09:16:52.303Z,12036.00
2019-06-20T09:17:52.945Z,13088.00
2019-06-20T09:18:53.186Z,11708.00
2019-06-20T09:19:51.665Z,15808.00
2019-06-20T09:20:52.867Z,16864.00
2019-06-20T09:21:53.918Z,17952.00
2019-06-20T09:22:52.346Z,14404.00
2019-06-20T09:23:53.848Z,13856.00
2019-06-20T09:24:53.684Z,12916.00
2019-06-20T09:25:52.932Z,12620.00
2019-06-20T09:26:53.889Z,12272.00
2019-06-20T09:27:54.355Z,12768.00
2019-06-20T09:28:54.392Z,12888.00
2019-06-20T09:29:54.388Z,11288.00
2019-06-20T09:30:55.189Z,11252.00
2019-06-20T09:31:55.431Z,11916.00
2019-06-20T09:32:55.570Z,14124.00
2019-06-20T09:33:55.814Z,13840.00
2019-06-20T09:34:56.486Z,15296.00
2019-06-20T09:35:55.611Z,16224.00
2019-06-20T09:36:55.523Z,13992.00
2019-06-20T09:37:57.068Z,16672.00
2019-06-20T09:38:57.761Z,17088.00
2019-06-20T09:39:57.229Z,18368.00
2019-06-20T09:40:56.892Z,18720.00
2019-06-20T09:41:56.703Z,19424.00
2019-06-20T09:42:56.946Z,19552.00
2019-06-20T09:43:58.477Z,19360.00
2019-06-20T09:44:58.402Z,19104.00
2019-06-20T09:45:58.398Z,19584.00
2019-06-20T09:46:58.193Z,18816.00
2019-06-20T09:47:58.349Z,17856.00
2019-06-20T09:48:58.749Z,17504.00
2019-06-20T09:49:59.037Z,16608.00
2019-06-20T09:50:58.832Z,14088.00
2019-06-20T09:51:59.070Z,14984.00
2019-06-20T09:52:59.306Z,14592.00
2019-06-20T09:53:59.541Z,14648.00
2019-06-20T09:54:59.794Z,16768.00
2019-06-20T09:56:00.034Z,16832.00
2019-06-20T09:57:00.259Z,14688.00
2019-06-20T09:58:00.488Z,15288.00
2019-06-20T09:59:00.736Z,15600.00
2019-06-20T10:00:09.696Z,19040.00
2019-06-20T10:01:01.193Z,16192.00
2019-06-20T10:02:01.576Z,14860.00
2019-06-20T10:03:01.665Z,13980.00
2019-06-20T10:04:01.912Z,13464.00
2019-06-20T10:05:02.139Z,13332.00
2019-06-20T10:06:12.928Z,13352.00
2019-06-20T10:07:02.616Z,13612.00
2019-06-20T10:08:02.862Z,13824.00
2019-06-20T10:09:03.103Z,13856.00
2019-06-20T10:10:03.348Z,13832.00
2019-06-20T10:11:03.563Z,13560.00
2019-06-20T10:12:03.805Z,13452.00
2019-06-20T10:13:04.039Z,14836.00
2019-06-20T10:14:04.275Z,13712.00
2019-06-20T10:15:04.513Z,12752.00
2019-06-20T10:16:04.766Z,13148.00
2019-06-20T10:17:04.984Z,12860.00
2019-06-20T10:18:05.215Z,12404.00
2019-06-20T10:19:05.454Z,11884.00
2019-06-20T10:20:05.690Z,11592.00
2019-06-20T10:21:05.921Z,11376.00
2019-06-20T10:22:06.161Z,11496.00
2019-06-20T10:23:06.408Z,12960.00
2019-06-20T10:24:06.660Z,10960.00
2019-06-20T10:25:06.901Z,11344.00
2019-06-20T10:26:07.134Z,11448.00
2019-06-20T10:27:07.373Z,12332.00
2019-06-20T10:28:07.608Z,12256.00
2019-06-20T10:29:07.839Z,14048.00
2019-06-20T10:30:14.240Z,13032.00
2019-06-20T10:31:08.324Z,13208.00
2019-06-20T10:32:08.549Z,15264.00
2019-06-20T10:33:08.787Z,14168.00
2019-06-20T10:34:09.025Z,14948.00
2019-06-20T10:35:09.262Z,15328.00
2019-06-20T10:36:09.514Z,13776.00
2019-06-20T10:37:09.810Z,13056.00
2019-06-20T10:38:09.946Z,13088.00
2019-06-20T10:39:10.183Z,12740.00
2019-06-20T10:40:10.421Z,15744.00
2019-06-20T10:41:10.658Z,16128.00
2019-06-20T10:42:10.894Z,13560.00
2019-06-20T10:43:11.188Z,13688.00
2019-06-20T10:44:11.303Z,13144.00
2019-06-20T10:45:11.536Z,13596.00
2019-06-20T10:46:11.772Z,12972.00
2019-06-20T10:47:12.016Z,13568.00
2019-06-20T10:48:12.254Z,16992.00
2019-06-20T10:49:12.486Z,12544.00
2019-06-20T10:50:12.730Z,11700.00
2019-06-20T10:51:12.963Z,11256.00
2019-06-20T10:52:13.198Z,10976.00
2019-06-20T10:53:13.435Z,11240.00
2019-06-20T10:54:13.691Z,10956.00
2019-06-20T10:55:13.917Z,15488.00
2019-06-20T10:56:14.157Z,11472.00
2019-06-20T10:57:14.391Z,15392.00
2019-06-20T10:58:14.623Z,11348.00
2019-06-20T10:59:14.860Z,11456.00
2019-06-20T11:00:29.731Z,12732.00
2019-06-20T11:01:15.352Z,15488.00
2019-06-20T11:02:15.600Z,15296.00
2019-06-20T11:03:15.833Z,15296.00
2019-06-20T11:04:16.067Z,15200.00
2019-06-20T11:05:16.328Z,11840.00
2019-06-20T11:06:16.556Z,12360.00
2019-06-20T11:07:16.790Z,9924.00
2019-06-20T11:08:17.024Z,9364.00
2019-06-20T11:09:17.260Z,9036.00
2019-06-20T11:10:17.492Z,8932.00
2019-06-20T11:11:17.732Z,9020.00
2019-06-20T11:12:17.958Z,9412.00
2019-06-20T11:13:18.195Z,10284.00
2019-06-20T11:14:18.430Z,12696.00
2019-06-20T11:15:18.664Z,12352.00
2019-06-20T11:16:18.897Z,10800.00
2019-06-20T11:17:19.130Z,10804.00
2019-06-20T11:18:19.368Z,11408.00
2019-06-20T11:19:19.608Z,13128.00
2019-06-20T11:20:19.844Z,13636.00
2019-06-20T11:21:20.089Z,13956.00
2019-06-20T11:22:20.313Z,17056.00
2019-06-20T11:23:20.554Z,16928.00
2019-06-20T11:24:20.801Z,13712.00
2019-06-20T11:25:21.039Z,14124.00
2019-06-20T11:26:21.273Z,13600.00
2019-06-20T11:27:21.508Z,12628.00
2019-06-20T11:28:21.746Z,12584.00
2019-06-20T11:29:21.984Z,12716.00
2019-06-20T11:30:22.218Z,12888.00
2019-06-20T11:31:22.455Z,13340.00
2019-06-20T11:32:22.688Z,13620.00
2019-06-20T11:33:22.923Z,13852.00
2019-06-20T11:34:23.276Z,13996.00
2019-06-20T11:35:23.397Z,14080.00
2019-06-20T11:36:23.631Z,14440.00
2019-06-20T11:37:23.870Z,16192.00
2019-06-20T11:38:24.153Z,14788.00
2019-06-20T11:39:24.369Z,14712.00
2019-06-20T11:40:24.595Z,14644.00
2019-06-20T11:41:24.830Z,14532.00
2019-06-20T11:42:25.078Z,14448.00
2019-06-20T11:43:25.359Z,14352.00
2019-06-20T11:44:25.568Z,14228.00
2019-06-20T11:45:25.811Z,14196.00
2019-06-20T11:46:26.034Z,14156.00
2019-06-20T11:47:26.267Z,14092.00
2019-06-20T11:48:26.505Z,14112.00
2019-06-20T11:49:26.737Z,14120.00
2019-06-20T11:50:26.974Z,14244.00
2019-06-20T11:51:27.210Z,14176.00
2019-06-20T11:52:27.451Z,14552.00
2019-06-20T11:53:27.681Z,14476.00
2019-06-20T11:54:27.914Z,14576.00
2019-06-20T11:55:28.151Z,14680.00
2019-06-20T11:56:28.392Z,14748.00
2019-06-20T11:57:28.636Z,14532.00
2019-06-20T11:58:28.880Z,14300.00
2019-06-20T11:59:29.117Z,14104.00
2019-06-20T12:00:29.360Z,13940.00
2019-06-20T12:01:32.941Z,13740.00
2019-06-20T12:02:29.847Z,13476.00
2019-06-20T12:03:30.083Z,13304.00
2019-06-20T12:04:30.330Z,13292.00
2019-06-20T12:05:30.564Z,13444.00
2019-06-20T12:06:30.803Z,13740.00
2019-06-20T12:07:31.050Z,13848.00
2019-06-20T12:08:31.279Z,13876.00
2019-06-20T12:09:31.517Z,13916.00
2019-06-20T12:10:31.753Z,13944.00
2019-06-20T12:11:31.998Z,13928.00
2019-06-20T12:12:32.219Z,13856.00
2019-06-20T12:13:32.457Z,13688.00
2019-06-20T12:14:32.699Z,13448.00
2019-06-20T12:15:32.932Z,13168.00
2019-06-20T12:16:33.165Z,12824.00
2019-06-20T12:17:33.402Z,12504.00
2019-06-20T12:18:33.637Z,12244.00